Winnebago, IL (61088)

8:10 AM CST on January 20, 2017 (GMT -0600)
Winnebago | | Change Station
Active Advisory: Flood Advisory Active Notice: Public Information Statement

Elev 870 ft 42.27 °N, 89.24 °W | Updated 10 seconds ago

Overcast
Overcast
36.5 °F
Feels Like 36 °F
N
0.0
Wind Variable Wind from NE
Gusts 0.0 mph

Today
High -- | Low -- °F
--% Chance of Precip.
Yesterday
High -- | Low -- °F
Precip. -- in
Pressure 29.67 in
Visibility 4.0 miles
Clouds Overcast 600 ft
Windchill 36 °F
Dew Point 36 °F
Humidity 97%
Rainfall 0.00 in
Snow Depth Not available.
7:20 AM 4:56 PM
Last Quarter, 44% visible
METAR KRFD 201354Z 06004KT 4SM BR OVC006 03/02 A2965 RMK AO2 DZE38 SLP045 P0000 T00330022
Pressure 29.67 in
Visibility 4.0 miles
Clouds Overcast 600 ft
Windchill 36 °F
Dew Point 36 °F
Humidity 97%
Rainfall 0.00 in
Snow Depth Not available.
7:20 AM 4:56 PM
Last Quarter, 44% visible
METAR KRFD 201354Z 06004KT 4SM BR OVC006 03/02 A2965 RMK AO2 DZE38 SLP045 P0000 T00330022

Get Your Daily Forecast Email!

Thanks for signing up!

Be on the lookout for a verification email in your inbox.

You'll start receiving the daily forecast at 8 AM.

×

10-Day Weather Forecast

Almanac

Astronomy

Jan. 20, 2017 Rise Set
Actual Time
Civil Twilight
Nautical Twilight
Astronomical Twilight
Moon
Length of Visible Light
Length of Day
Tomorrow will be .
, % of the Moon is Illuminated

Today's Extremes

State Highs State Lows

Community

WunderPhotos

Upload Photos

1,962,540 photos uploaded!

WunderBlog® & News

Nearby

Air Quality

  Air Quality AQ Index Pollutant
Not available.

Snow Depth

Station Depth Elevation

Earthquake Activity

City Distance Mag. Time & Date
Minimum magnitude displayed is 2.5.

Coastal Water Temperatures

Place Temperature

Stations

Nearby Weather Stations

Station Location Temp. Windchill Dew Point Humidity Wind Precip. Elev Updated Type
                   

Watches & Warnings

Flood Advisory
Issued: 8:34 PM CST Jan. 19, 2017 – National Weather Service

The Flood Advisory continues for
the Pecatonica River near Shirland
* until Wednesday evening.
* At 800 PM Thursday the stage was 10.4 feet.
* Action stage is 11.0 feet.
* Flood stage is 12.0 feet.
* Forecast... the river will rise to near 11.5 feet by Sunday
afternoon.
* Impact... at 12.0 feet... water overflows low lying areas near the
river.


Lat... Lon 4247 8922 4236 8940 4229 8934 4240 8917
      4242 8907 4249 8909